createdAt,value
2018-07-22T00:00:39.091Z,98438.47
2018-07-22T00:03:07.494Z,98451.42
2018-07-22T00:05:35.904Z,98445.03
2018-07-22T00:08:04.265Z,98445.38
2018-07-22T00:10:32.596Z,98442.15
2018-07-22T00:13:01.251Z,98443.33
2018-07-22T00:15:29.750Z,98439.17
2018-07-22T00:17:58.182Z,98445.56
2018-07-22T00:20:26.518Z,98443.89
2018-07-22T00:22:54.894Z,98441.17
2018-07-22T00:25:23.234Z,98444.73
2018-07-22T00:27:51.672Z,98440.26
2018-07-22T00:30:19.997Z,98444.94
2018-07-22T00:32:48.291Z,98448.61
2018-07-22T00:35:16.592Z,98443.92
2018-07-22T00:37:45.007Z,98441.64
2018-07-22T00:40:13.359Z,98436.22
2018-07-22T00:42:42.063Z,98439.14
2018-07-22T00:45:12.545Z,98440.09
2018-07-22T00:47:41.319Z,98444.36
2018-07-22T00:50:09.687Z,98441.55
2018-07-22T00:52:38.254Z,98440.02
2018-07-22T00:55:06.885Z,98435.84
2018-07-22T00:57:35.208Z,98436.43
2018-07-22T01:00:04.215Z,98435.43
2018-07-22T01:02:32.509Z,98438.40
2018-07-22T01:05:00.818Z,98440.67
2018-07-22T01:07:29.267Z,98442.75
2018-07-22T01:09:57.600Z,98447.23
2018-07-22T01:12:25.925Z,98446.91
2018-07-22T01:14:54.503Z,98445.66
2018-07-22T01:17:22.821Z,98448.27
2018-07-22T01:19:51.126Z,98447.64
2018-07-22T01:22:19.451Z,98446.71
2018-07-22T01:24:47.731Z,98449.33
2018-07-22T01:27:16.063Z,98445.55
2018-07-22T01:29:44.402Z,98450.16
2018-07-22T01:32:12.775Z,98448.79
2018-07-22T01:34:41.066Z,98451.52
2018-07-22T01:37:09.419Z,98448.88
2018-07-22T01:39:37.727Z,98450.26
2018-07-22T01:42:06.052Z,98456.19
2018-07-22T01:44:34.337Z,98452.33
2018-07-22T01:47:02.684Z,98459.64
2018-07-22T01:49:31.067Z,98458.17
2018-07-22T01:51:59.394Z,98462.67
2018-07-22T01:54:27.679Z,98460.99
2018-07-22T01:56:55.982Z,98460.02
2018-07-22T01:59:24.336Z,98455.83
2018-07-22T02:01:52.688Z,98456.98
2018-07-22T02:04:20.967Z,98458.86
2018-07-22T02:06:49.369Z,98455.92
2018-07-22T02:09:17.885Z,98458.62
2018-07-22T02:11:46.233Z,98464.46
2018-07-22T02:14:14.536Z,98459.73
2018-07-22T02:16:42.965Z,98459.95
2018-07-22T02:19:11.273Z,98460.46
2018-07-22T02:21:39.782Z,98463.17
2018-07-22T02:24:08.062Z,98459.01
2018-07-22T02:26:36.379Z,98455.50
2018-07-22T02:29:04.675Z,98458.42
2018-07-22T02:31:33.043Z,98452.55
2018-07-22T02:34:01.306Z,98455.95
2018-07-22T02:36:29.610Z,98462.72
2018-07-22T02:38:57.872Z,98459.02
2018-07-22T02:41:26.218Z,98460.53
2018-07-22T02:43:54.517Z,98455.84
2018-07-22T02:46:22.978Z,98461.62
2018-07-22T02:48:51.323Z,98461.55
2018-07-22T02:51:19.776Z,98446.92
2018-07-22T02:53:48.167Z,98454.27
2018-07-22T02:56:16.818Z,98456.84
2018-07-22T02:58:45.150Z,98459.55
2018-07-22T03:01:13.515Z,98458.83
2018-07-22T03:03:41.894Z,98463.82
2018-07-22T03:06:10.215Z,98465.58
2018-07-22T03:08:38.489Z,98468.89
2018-07-22T03:11:06.871Z,98468.81
2018-07-22T03:13:35.204Z,98476.50
2018-07-22T03:16:03.503Z,98472.03
2018-07-22T03:18:31.861Z,98475.89
2018-07-22T03:21:00.252Z,98469.30
2018-07-22T03:23:28.602Z,98469.24
2018-07-22T03:25:57.035Z,98476.89
2018-07-22T03:28:25.377Z,98482.11
2018-07-22T03:30:53.684Z,98478.77
2018-07-22T03:33:21.990Z,98473.73
2018-07-22T03:35:50.313Z,98485.96
2018-07-22T03:38:18.686Z,98478.89
2018-07-22T03:40:46.983Z,98483.59
2018-07-22T03:43:15.651Z,98484.77
2018-07-22T03:45:43.999Z,98482.44
2018-07-22T03:48:12.323Z,98484.95
2018-07-22T03:50:40.588Z,98491.37
2018-07-22T03:53:08.944Z,98490.78
2018-07-22T03:55:37.247Z,98494.47
2018-07-22T03:58:05.746Z,98499.68
2018-07-22T04:00:34.049Z,98505.16
2018-07-22T04:03:02.392Z,98500.52
2018-07-22T04:05:30.708Z,98498.33
2018-07-22T04:07:59.022Z,98500.16
2018-07-22T04:10:27.289Z,98500.00
2018-07-22T04:12:55.598Z,98501.55
2018-07-22T04:15:23.915Z,98507.22
2018-07-22T04:17:52.479Z,98504.28
2018-07-22T04:20:20.795Z,98503.38
2018-07-22T04:22:49.629Z,98511.59
2018-07-22T04:25:18.526Z,98501.11
2018-07-22T04:27:47.368Z,98506.08
2018-07-22T04:30:15.751Z,98504.83
2018-07-22T04:32:44.209Z,98506.62
2018-07-22T04:35:12.475Z,98503.69
2018-07-22T04:37:41.111Z,98506.26
2018-07-22T04:40:09.621Z,98511.66
2018-07-22T04:42:38.648Z,98507.22
2018-07-22T04:45:07.403Z,98506.28
2018-07-22T04:47:35.730Z,98509.27
2018-07-22T04:50:04.106Z,98514.77
2018-07-22T04:52:32.494Z,98518.34
2018-07-22T04:55:00.852Z,98523.08
2018-07-22T04:57:29.403Z,98528.83
2018-07-22T04:59:57.729Z,98528.84
2018-07-22T05:02:26.019Z,98522.01
2018-07-22T05:04:54.351Z,98520.06
2018-07-22T05:07:23.937Z,98521.34
2018-07-22T05:09:52.259Z,98521.64
2018-07-22T05:12:20.660Z,98527.44
2018-07-22T05:14:49.038Z,98520.48
2018-07-22T05:17:17.354Z,98521.04
2018-07-22T05:19:45.694Z,98525.33
2018-07-22T05:22:14.001Z,98523.73
2018-07-22T05:24:42.318Z,98525.27
2018-07-22T05:27:10.684Z,98532.38
2018-07-22T05:29:39.538Z,98533.61
2018-07-22T05:32:07.875Z,98537.37
2018-07-22T05:34:36.268Z,98545.84
2018-07-22T05:37:04.588Z,98544.35
2018-07-22T05:39:32.993Z,98540.81
2018-07-22T05:42:01.375Z,98541.95
2018-07-22T05:44:29.695Z,98539.55
2018-07-22T05:46:58.061Z,98542.06
2018-07-22T05:49:26.403Z,98530.09
2018-07-22T05:51:54.738Z,98534.73
2018-07-22T05:54:24.281Z,98544.61
2018-07-22T05:56:52.654Z,98542.02
2018-07-22T05:59:21.002Z,98546.65
2018-07-22T06:01:49.294Z,98550.90
2018-07-22T06:04:17.619Z,98554.71
2018-07-22T06:06:45.964Z,98550.36
2018-07-22T06:09:14.310Z,98550.72
2018-07-22T06:11:42.610Z,98553.42
2018-07-22T06:14:10.958Z,98566.80
2018-07-22T06:16:39.357Z,98569.63
2018-07-22T06:19:07.639Z,98572.46
2018-07-22T06:21:35.994Z,98575.14
2018-07-22T06:24:04.312Z,98566.46
2018-07-22T06:26:32.638Z,98560.50
2018-07-22T06:29:00.955Z,98568.76
2018-07-22T06:31:29.301Z,98566.72
2018-07-22T06:33:57.697Z,98563.73
2018-07-22T06:36:26.022Z,98565.73
2018-07-22T06:38:54.297Z,98571.19
2018-07-22T06:41:22.708Z,98570.16
2018-07-22T06:43:51.065Z,98568.91
2018-07-22T06:46:19.373Z,98567.89
2018-07-22T06:48:47.904Z,98572.42
2018-07-22T06:51:16.427Z,98570.02
2018-07-22T06:53:44.908Z,98569.84
2018-07-22T06:56:13.254Z,98568.05
2018-07-22T06:58:41.627Z,98571.10
2018-07-22T07:01:09.967Z,98568.63
2018-07-22T07:03:38.243Z,98572.47
2018-07-22T07:06:06.617Z,98568.41
2018-07-22T07:08:35.015Z,98570.39
2018-07-22T07:11:03.564Z,98576.87
2018-07-22T07:13:32.830Z,98576.75
2018-07-22T07:16:01.135Z,98578.95
2018-07-22T07:18:29.462Z,98578.03
2018-07-22T07:20:57.788Z,98582.19
2018-07-22T07:23:26.084Z,98583.89
2018-07-22T07:25:55.150Z,98585.63
2018-07-22T07:28:23.427Z,98586.33
2018-07-22T07:30:52.101Z,98585.52
2018-07-22T07:33:20.948Z,98579.59
2018-07-22T07:35:49.637Z,98581.48
2018-07-22T07:38:18.157Z,98578.41
2018-07-22T07:40:47.515Z,98574.36
2018-07-22T07:43:16.411Z,98573.00
2018-07-22T07:45:45.147Z,98573.69
2018-07-22T07:48:13.950Z,98571.50
2018-07-22T07:50:42.910Z,98575.21
2018-07-22T07:53:12.535Z,98571.44
2018-07-22T07:55:43.006Z,98573.97
2018-07-22T07:58:30.692Z,98572.33
2018-07-22T08:01:01.444Z,98566.64
2018-07-22T08:03:34.761Z,98570.14
2018-07-22T08:06:03.699Z,98569.77
2018-07-22T08:08:34.549Z,98563.27
2018-07-22T08:11:03.104Z,98560.76
2018-07-22T08:13:31.844Z,98563.20
2018-07-22T08:16:00.793Z,98567.59
2018-07-22T08:18:30.856Z,98567.17
2018-07-22T08:20:59.611Z,98566.84
2018-07-22T08:26:02.059Z,98572.72
2018-07-22T08:29:48.841Z,98571.94
2018-07-22T08:32:17.612Z,98569.22
2018-07-22T08:34:46.237Z,98568.49
2018-07-22T08:37:14.963Z,98573.34
2018-07-22T08:39:43.572Z,98569.91
2018-07-22T08:42:12.369Z,98575.06
2018-07-22T08:44:41.117Z,98569.83
2018-07-22T08:47:09.826Z,98574.33
2018-07-22T08:49:40.917Z,98569.14
2018-07-22T08:52:09.555Z,98568.13
2018-07-22T08:54:38.097Z,98563.94
2018-07-22T08:57:06.915Z,98566.95
2018-07-22T08:59:36.674Z,98570.01
2018-07-22T09:02:05.420Z,98566.37
2018-07-22T09:04:33.920Z,98561.43
2018-07-22T09:07:02.555Z,98573.79
2018-07-22T09:09:30.998Z,98569.75
2018-07-22T09:11:59.504Z,98566.80
2018-07-22T09:14:27.942Z,98569.22
2018-07-22T09:16:56.615Z,98575.42
2018-07-22T09:19:25.211Z,98574.48
2018-07-22T09:21:53.790Z,98566.34
2018-07-22T09:24:22.396Z,98561.64
2018-07-22T09:26:50.877Z,98567.86
2018-07-22T09:29:20.452Z,98565.95
2018-07-22T09:31:49.189Z,98570.94
2018-07-22T09:34:18.576Z,98570.34
2018-07-22T09:36:47.211Z,98573.20
2018-07-22T09:39:15.760Z,98570.99
2018-07-22T09:41:45.266Z,98568.85
2018-07-22T09:44:13.848Z,98569.69
2018-07-22T09:46:56.454Z,98580.30
2018-07-22T09:49:25.468Z,98570.88
2018-07-22T09:51:53.784Z,98573.59
2018-07-22T09:54:22.183Z,98574.30
2018-07-22T09:56:50.731Z,98573.86
2018-07-22T09:59:19.057Z,98574.33
2018-07-22T10:01:47.343Z,98571.08
2018-07-22T10:04:15.607Z,98572.45
2018-07-22T10:06:43.911Z,98571.48
2018-07-22T10:09:12.646Z,98572.86
2018-07-22T10:11:40.981Z,98574.35
2018-07-22T10:14:09.433Z,98566.36
2018-07-22T10:16:37.859Z,98565.22
2018-07-22T10:19:06.896Z,98562.08
2018-07-22T10:21:35.340Z,98574.44
2018-07-22T10:24:03.817Z,98562.95
2018-07-22T10:26:32.467Z,98565.22
2018-07-22T10:29:02.023Z,98563.27
2018-07-22T10:31:30.347Z,98559.97
2018-07-22T10:33:59.610Z,98554.98
2018-07-22T10:36:27.996Z,98563.42
2018-07-22T10:38:56.570Z,98557.41
2018-07-22T10:41:26.551Z,98544.38
2018-07-22T10:43:54.864Z,98545.70
2018-07-22T10:46:26.525Z,98545.50
2018-07-22T10:48:57.427Z,98542.33
2018-07-22T10:51:26.628Z,98537.03
2018-07-22T10:53:55.016Z,98537.25
2018-07-22T10:56:23.511Z,98538.15
2018-07-22T10:58:52.280Z,98541.45
2018-07-22T11:01:21.667Z,98539.98
2018-07-22T11:03:50.708Z,98533.97
2018-07-22T11:06:19.062Z,98531.48
2018-07-22T11:08:48.262Z,98528.43
2018-07-22T11:11:16.658Z,98531.23
2018-07-22T11:13:45.093Z,98531.31
2018-07-22T11:16:13.375Z,98538.72
2018-07-22T11:18:42.826Z,98535.98
2018-07-22T11:21:12.632Z,98533.56
2018-07-22T11:23:41.938Z,98539.13
2018-07-22T11:26:12.067Z,98544.06
2018-07-22T11:28:40.746Z,98539.77
2018-07-22T11:31:09.965Z,98539.96
2018-07-22T11:33:39.238Z,98538.93
2018-07-22T11:36:07.978Z,98533.58
2018-07-22T11:38:37.785Z,98531.43
2018-07-22T11:41:06.890Z,98539.05
2018-07-22T11:43:35.275Z,98539.93
2018-07-22T11:46:04.646Z,98534.48
2018-07-22T11:48:34.446Z,98526.56
2018-07-22T11:51:04.175Z,98528.48
2018-07-22T11:53:33.318Z,98526.07
2018-07-22T11:56:01.842Z,98517.89
2018-07-22T11:58:31.139Z,98513.78
2018-07-22T12:01:01.037Z,98509.39
2018-07-22T12:03:29.690Z,98508.19
2018-07-22T12:05:59.697Z,98499.44
2018-07-22T12:08:28.165Z,98493.95
2018-07-22T12:10:57.146Z,98499.98
2018-07-22T12:13:27.196Z,98504.98
2018-07-22T12:15:56.297Z,98496.24
2018-07-22T12:18:24.788Z,98493.74
2018-07-22T12:20:53.755Z,98495.72
2018-07-22T12:23:24.502Z,98495.59
2018-07-22T12:25:55.021Z,98497.95
2018-07-22T12:28:23.491Z,98496.14
2018-07-22T12:30:52.067Z,98491.69
2018-07-22T12:33:20.432Z,98487.61
2018-07-22T12:35:49.035Z,98488.25
2018-07-22T12:38:17.600Z,98499.00
2018-07-22T12:40:46.508Z,98507.10
2018-07-22T12:43:14.868Z,98512.25
2018-07-22T12:45:43.260Z,98517.31
2018-07-22T12:48:11.667Z,98529.14
2018-07-22T12:50:40.081Z,98540.66
2018-07-22T12:53:08.867Z,98570.44
2018-07-22T12:55:37.331Z,98583.66
2018-07-22T12:58:05.723Z,98579.58
2018-07-22T13:00:34.070Z,98592.30
2018-07-22T13:03:04.415Z,98594.22
2018-07-22T13:05:32.875Z,98615.70
2018-07-22T13:08:01.735Z,98628.66
2018-07-22T13:10:30.094Z,98636.49
2018-07-22T13:12:58.590Z,98632.19
2018-07-22T13:15:26.943Z,98635.75
2018-07-22T13:17:55.569Z,98641.19
2018-07-22T13:20:23.966Z,98638.18
2018-07-22T13:22:52.643Z,98648.75
2018-07-22T13:25:20.986Z,98646.09
2018-07-22T13:27:49.361Z,98648.38
2018-07-22T13:30:17.872Z,98662.58
2018-07-22T13:32:46.772Z,98658.17
2018-07-22T13:35:15.482Z,98653.03
2018-07-22T13:37:44.026Z,98652.96
2018-07-22T13:40:12.385Z,98650.65
2018-07-22T13:42:41.185Z,98660.50
2018-07-22T13:45:09.531Z,98659.16
2018-07-22T13:47:37.821Z,98658.01
2018-07-22T13:50:06.648Z,98658.64
2018-07-22T13:52:35.014Z,98663.73
2018-07-22T13:55:03.476Z,98674.16
2018-07-22T13:57:32.152Z,98674.41
2018-07-22T14:00:00.600Z,98673.95
2018-07-22T14:02:29.893Z,98673.68
2018-07-22T14:04:58.912Z,98672.92
2018-07-22T14:07:27.975Z,98667.91
2018-07-22T14:09:56.455Z,98671.21
2018-07-22T14:12:25.066Z,98673.36
2018-07-22T14:14:53.952Z,98668.63
2018-07-22T14:17:22.377Z,98678.28
2018-07-22T14:19:51.777Z,98663.16
2018-07-22T14:22:20.256Z,98661.81
2018-07-22T14:24:48.661Z,98667.34
2018-07-22T14:27:17.075Z,98669.94
2018-07-22T14:29:45.390Z,98666.50
2018-07-22T14:32:14.245Z,98669.53
2018-07-22T14:34:42.895Z,98668.56
2018-07-22T14:37:11.641Z,98670.02
2018-07-22T14:39:40.052Z,98670.83
2018-07-22T14:42:08.567Z,98664.49
2018-07-22T14:44:36.935Z,98671.60
2018-07-22T14:47:05.790Z,98663.97
2018-07-22T14:49:34.213Z,98668.38
2018-07-22T14:52:02.623Z,98673.77
2018-07-22T14:54:31.121Z,98668.88
2018-07-22T14:56:59.731Z,98666.59
2018-07-22T14:59:28.286Z,98670.45
2018-07-22T15:01:56.866Z,98671.14
2018-07-22T15:04:25.912Z,98670.22
2018-07-22T15:06:54.746Z,98662.55
2018-07-22T15:09:23.109Z,98665.23
2018-07-22T15:11:51.471Z,98661.34
2018-07-22T15:14:19.989Z,98673.67
2018-07-22T15:16:48.534Z,98674.63
2018-07-22T15:19:17.166Z,98672.48
2018-07-22T15:21:45.506Z,98671.66
2018-07-22T15:24:13.922Z,98665.05
2018-07-22T15:26:42.455Z,98670.98
2018-07-22T15:29:10.948Z,98670.05
2018-07-22T15:31:39.418Z,98670.36
2018-07-22T15:34:08.012Z,98668.13
2018-07-22T15:36:36.574Z,98664.73
2018-07-22T15:39:08.038Z,98666.14
2018-07-22T15:41:36.490Z,98674.89
2018-07-22T15:44:05.077Z,98671.69
2018-07-22T15:46:34.231Z,98671.91
2018-07-22T15:49:04.266Z,98674.83
2018-07-22T15:51:37.577Z,98677.97
2018-07-22T15:54:06.874Z,98669.92
2018-07-22T15:56:35.838Z,98680.88
2018-07-22T15:59:04.535Z,98669.61
2018-07-22T16:01:32.862Z,98669.99
2018-07-22T16:04:01.419Z,98663.47
2018-07-22T16:06:30.371Z,98669.29
2018-07-22T16:08:58.912Z,98661.08
2018-07-22T16:11:28.664Z,98660.17
2018-07-22T16:14:00.364Z,98657.78
2018-07-22T16:16:29.386Z,98649.41
2018-07-22T16:19:09.774Z,98657.98
2018-07-22T16:21:53.768Z,98655.30
2018-07-22T16:24:23.388Z,98659.67
2018-07-22T16:26:52.089Z,98654.58
2018-07-22T16:29:21.117Z,98657.52
2018-07-22T16:31:49.943Z,98653.45
2018-07-22T16:34:18.287Z,98651.92
2018-07-22T16:36:46.749Z,98645.73
2018-07-22T16:39:25.765Z,98641.73
2018-07-22T16:41:54.270Z,98642.42
2018-07-22T16:44:22.554Z,98635.16
2018-07-22T16:46:51.775Z,98639.28
2018-07-22T16:49:20.227Z,98633.81
2018-07-22T16:51:48.579Z,98634.07
2018-07-22T16:54:16.898Z,98631.80
2018-07-22T16:56:45.324Z,98623.58
2018-07-22T16:59:13.631Z,98619.65
2018-07-22T17:01:41.967Z,98623.02
2018-07-22T17:04:12.043Z,98622.55
2018-07-22T17:06:40.418Z,98618.34
2018-07-22T17:09:12.106Z,98616.25
2018-07-22T17:11:44.016Z,98610.49
2018-07-22T17:14:12.370Z,98616.48
2018-07-22T17:16:40.650Z,98612.94
2018-07-22T17:19:09.070Z,98614.81
2018-07-22T17:21:37.384Z,98615.30
2018-07-22T17:24:05.926Z,98612.52
2018-07-22T17:26:34.306Z,98614.58
2018-07-22T17:29:02.615Z,98610.31
2018-07-22T17:31:31.537Z,98616.31
2018-07-22T17:34:01.295Z,98614.71
2018-07-22T17:36:30.681Z,98613.89
2018-07-22T17:38:59.177Z,98620.95
2018-07-22T17:41:27.576Z,98616.50
2018-07-22T17:43:55.935Z,98619.29
2018-07-22T17:46:24.253Z,98616.77
2018-07-22T17:48:52.604Z,98622.55
2018-07-22T17:51:20.969Z,98617.42
2018-07-22T17:53:49.454Z,98618.78
2018-07-22T17:56:17.723Z,98617.64
2018-07-22T17:58:46.611Z,98620.05
2018-07-22T18:01:15.107Z,98625.17
2018-07-22T18:03:43.575Z,98628.27
2018-07-22T18:06:11.905Z,98624.50
2018-07-22T18:08:40.232Z,98625.17
2018-07-22T18:11:08.567Z,98628.32
2018-07-22T18:13:36.976Z,98629.56
2018-07-22T18:16:05.279Z,98615.93
2018-07-22T18:18:35.429Z,98627.67
2018-07-22T18:21:05.495Z,98626.64
2018-07-22T18:23:38.489Z,98630.45
2018-07-22T18:26:08.583Z,98633.11
2018-07-22T18:28:37.008Z,98634.39
2018-07-22T18:31:05.305Z,98644.50
2018-07-22T18:33:33.710Z,98641.43
2018-07-22T18:36:02.073Z,98647.02
2018-07-22T18:38:30.814Z,98643.98
2018-07-22T18:41:00.072Z,98647.80
2018-07-22T18:43:33.636Z,98645.86
2018-07-22T18:46:01.924Z,98650.33
2018-07-22T18:48:30.294Z,98652.72
2018-07-22T18:51:00.229Z,98649.79
2018-07-22T18:53:28.593Z,98649.06
2018-07-22T18:55:59.906Z,98651.72
2018-07-22T18:58:30.456Z,98658.87
2018-07-22T19:00:58.795Z,98658.78
2018-07-22T19:03:27.635Z,98660.44
2018-07-22T19:05:58.016Z,98664.28
2018-07-22T19:08:31.876Z,98667.86
2018-07-22T19:11:01.307Z,98674.48
2018-07-22T19:13:29.762Z,98673.86
2018-07-22T19:15:59.791Z,98671.80
2018-07-22T19:18:31.153Z,98672.17
2018-07-22T19:21:00.697Z,98675.86
2018-07-22T19:23:29.101Z,98678.52
2018-07-22T19:25:58.899Z,98676.69
2018-07-22T19:28:28.619Z,98686.38
2018-07-22T19:30:57.598Z,98683.00
2018-07-22T19:33:27.528Z,98685.36
2018-07-22T19:35:56.163Z,98697.15
2018-07-22T19:38:25.081Z,98698.08
2018-07-22T19:40:54.926Z,98706.86
2018-07-22T19:43:24.719Z,98709.88
2018-07-22T19:45:54.149Z,98713.95
2018-07-22T19:48:25.554Z,98710.21
2018-07-22T19:50:55.456Z,98710.16
2018-07-22T19:53:24.526Z,98712.06
2018-07-22T19:55:53.539Z,98713.99
2018-07-22T19:58:21.944Z,98715.11
2018-07-22T20:00:50.284Z,98722.77
2018-07-22T20:03:18.590Z,98721.88
2018-07-22T20:05:47.012Z,98727.78
2018-07-22T20:08:15.362Z,98723.27
2018-07-22T20:10:44.009Z,98725.77
2018-07-22T20:13:12.491Z,98722.31
2018-07-22T20:15:40.843Z,98727.45
2018-07-22T20:18:09.283Z,98728.17
2018-07-22T20:20:37.638Z,98732.85
2018-07-22T20:23:05.968Z,98736.39
2018-07-22T20:25:34.478Z,98738.59
2018-07-22T20:28:02.959Z,98741.27
2018-07-22T20:30:31.292Z,98737.86
2018-07-22T20:32:59.580Z,98736.00
2018-07-22T20:35:27.959Z,98740.97
2018-07-22T20:37:57.450Z,98736.78
2018-07-22T20:40:25.791Z,98741.91
2018-07-22T20:42:54.130Z,98740.88
2018-07-22T20:45:22.711Z,98746.49
2018-07-22T20:47:52.530Z,98749.55
2018-07-22T20:50:21.048Z,98741.53
2018-07-22T20:52:49.362Z,98747.44
2018-07-22T20:55:17.703Z,98747.12
2018-07-22T20:57:46.063Z,98749.56
2018-07-22T21:00:14.699Z,98749.42
2018-07-22T21:02:46.011Z,98751.13
2018-07-22T21:05:14.342Z,98753.77
2018-07-22T21:07:42.660Z,98749.64
2018-07-22T21:10:11.006Z,98756.41
2018-07-22T21:12:51.932Z,98756.31
2018-07-22T21:15:20.472Z,98756.09
2018-07-22T21:17:50.227Z,98755.41
2018-07-22T21:20:19.519Z,98755.70
2018-07-22T21:22:48.207Z,98760.11
2018-07-22T21:25:17.031Z,98755.23
2018-07-22T21:27:45.619Z,98756.06
2018-07-22T21:30:14.622Z,98760.22
2018-07-22T21:32:42.937Z,98758.91
2018-07-22T21:35:11.436Z,98766.27
2018-07-22T21:37:39.935Z,98765.51
2018-07-22T21:40:08.301Z,98760.02
2018-07-22T21:42:36.670Z,98764.53
2018-07-22T21:45:06.101Z,98762.17
2018-07-22T21:47:34.948Z,98755.94
2018-07-22T21:50:03.322Z,98763.75
2018-07-22T21:52:31.651Z,98762.56
2018-07-22T21:54:59.978Z,98771.17
2018-07-22T21:57:28.314Z,98779.41
2018-07-22T21:59:56.668Z,98782.16
2018-07-22T22:02:31.603Z,98780.96
2018-07-22T22:05:00.595Z,98787.09
2018-07-22T22:07:28.896Z,98788.53
2018-07-22T22:09:57.300Z,98790.03
2018-07-22T22:12:25.577Z,98787.55
2018-07-22T22:14:54.006Z,98783.44
2018-07-22T22:17:22.388Z,98780.36
2018-07-22T22:19:50.754Z,98785.11
2018-07-22T22:22:19.029Z,98785.44
2018-07-22T22:24:47.467Z,98785.29
2018-07-22T22:27:16.550Z,98787.98
2018-07-22T22:29:44.862Z,98792.77
2018-07-22T22:32:13.277Z,98796.84
2018-07-22T22:34:42.076Z,98795.39
2018-07-22T22:37:10.400Z,98802.95
2018-07-22T22:39:43.398Z,98795.05
2018-07-22T22:42:11.778Z,98800.53
2018-07-22T22:44:40.065Z,98803.52
2018-07-22T22:47:08.378Z,98798.38
2018-07-22T22:49:36.663Z,98795.47
2018-07-22T22:52:05.146Z,98797.98
2018-07-22T22:54:34.089Z,98798.48
2018-07-22T22:57:02.418Z,98793.46
2018-07-22T22:59:30.716Z,98796.70
2018-07-22T23:01:59.070Z,98794.22
2018-07-22T23:04:27.419Z,98799.22
2018-07-22T23:06:55.767Z,98788.58
2018-07-22T23:09:24.109Z,98799.30
2018-07-22T23:11:52.454Z,98793.03
2018-07-22T23:14:20.780Z,98791.89
2018-07-22T23:16:49.211Z,98793.13
2018-07-22T23:19:17.520Z,98797.55
2018-07-22T23:21:45.858Z,98799.42
2018-07-22T23:24:14.141Z,98801.88
2018-07-22T23:26:42.503Z,98798.37
2018-07-22T23:29:10.782Z,98799.06
2018-07-22T23:31:39.080Z,98796.38
2018-07-22T23:34:07.394Z,98799.44
2018-07-22T23:36:35.693Z,98796.21
2018-07-22T23:39:06.163Z,98792.27
2018-07-22T23:41:34.606Z,98786.22
2018-07-22T23:44:02.914Z,98793.82
2018-07-22T23:46:31.228Z,98792.02
2018-07-22T23:48:59.493Z,98791.53
2018-07-22T23:51:27.800Z,98795.03
2018-07-22T23:53:56.088Z,98790.08
2018-07-22T23:56:24.420Z,98794.56
2018-07-22T23:58:52.727Z,98791.36
